createdAt,value
2022-09-21T00:01:09.398Z,11.35
2022-09-21T00:03:36.938Z,10.18
2022-09-21T00:06:14.423Z,8.43
2022-09-21T00:08:41.507Z,9.77
2022-09-21T00:11:08.682Z,9.52
2022-09-21T00:13:37.300Z,10.02
2022-09-21T00:16:07.399Z,9.68
2022-09-21T00:18:35.576Z,10.05
2022-09-21T00:21:07.096Z,10.27
2022-09-21T00:23:35.923Z,8.80
2022-09-21T00:26:13.602Z,10.80
2022-09-21T00:28:40.657Z,10.02
2022-09-21T00:31:12.634Z,11.02
2022-09-21T00:33:39.971Z,9.32
2022-09-21T00:36:14.484Z,9.75
2022-09-21T00:38:41.410Z,10.23
2022-09-21T00:41:09.163Z,9.88
2022-09-21T00:43:43.345Z,11.32
2022-09-21T00:46:27.087Z,10.38
2022-09-21T00:48:53.715Z,10.23
2022-09-21T00:51:20.484Z,9.35
2022-09-21T00:53:49.063Z,11.60
2022-09-21T00:56:15.662Z,9.18
2022-09-21T00:58:46.239Z,11.05
2022-09-21T01:01:19.007Z,8.70
2022-09-21T01:03:50.585Z,8.73
2022-09-21T01:06:18.637Z,8.50
2022-09-21T01:08:49.438Z,12.25
2022-09-21T01:11:39.621Z,9.55
2022-09-21T01:14:31.378Z,8.45
2022-09-21T01:17:16.213Z,9.90
2022-09-21T01:20:15.168Z,9.18
2022-09-21T01:23:16.988Z,11.02
2022-09-21T01:26:31.471Z,13.25
2022-09-21T01:29:38.216Z,9.13
2022-09-21T01:32:28.080Z,9.23
2022-09-21T01:34:56.107Z,8.80
2022-09-21T01:37:25.669Z,9.65
2022-09-21T01:39:56.187Z,9.55
2022-09-21T01:42:24.447Z,9.30
2022-09-21T01:47:18.432Z,12.98
2022-09-21T01:49:48.448Z,10.20
2022-09-21T01:52:20.160Z,6.60
2022-09-21T01:54:54.575Z,9.70
2022-09-21T01:57:56.406Z,11.57
2022-09-21T02:00:24.470Z,10.50
2022-09-21T02:05:23.915Z,11.80
2022-09-21T02:07:51.647Z,9.63
2022-09-21T02:10:39.954Z,9.57
2022-09-21T02:13:07.135Z,10.23
2022-09-21T02:15:41.018Z,11.65
2022-09-21T02:18:14.246Z,8.02
2022-09-21T02:20:48.304Z,10.60
2022-09-21T02:23:22.565Z,11.73
2022-09-21T02:25:55.164Z,10.40
2022-09-21T02:28:27.686Z,8.80
2022-09-21T02:31:00.532Z,13.02
2022-09-21T02:33:32.636Z,10.38
2022-09-21T02:36:09.042Z,8.95
2022-09-21T02:38:39.745Z,7.68
2022-09-21T02:41:15.370Z,12.85
2022-09-21T02:43:49.248Z,15.98
2022-09-21T02:46:26.676Z,8.75
2022-09-21T02:49:04.279Z,10.30
2022-09-21T02:51:34.055Z,12.50
2022-09-21T02:54:04.498Z,10.75
2022-09-21T02:56:31.500Z,9.50
2022-09-21T02:59:01.688Z,9.68
2022-09-21T03:01:28.869Z,8.60
2022-09-21T03:03:55.423Z,7.80
2022-09-21T03:06:21.982Z,7.80
2022-09-21T03:08:48.803Z,8.90
2022-09-21T03:11:19.479Z,9.07
2022-09-21T03:13:46.264Z,7.50
2022-09-21T03:16:13.492Z,8.27
2022-09-21T03:18:42.136Z,7.68
2022-09-21T03:23:35.150Z,10.10
2022-09-21T03:26:02.556Z,7.55
2022-09-21T03:28:29.137Z,7.38
2022-09-21T03:30:55.697Z,10.82
2022-09-21T03:33:23.133Z,10.73
2022-09-21T03:35:49.908Z,7.30
2022-09-21T03:38:16.822Z,9.48
2022-09-21T03:40:47.309Z,8.52
2022-09-21T03:43:14.012Z,8.25
2022-09-21T03:45:42.572Z,9.18
2022-09-21T03:48:10.741Z,9.85
2022-09-21T03:53:04.496Z,10.50
2022-09-21T03:55:31.633Z,9.93
2022-09-21T03:57:58.221Z,7.88
2022-09-21T04:00:24.980Z,8.43
2022-09-21T04:02:51.814Z,11.57
2022-09-21T04:05:18.557Z,14.98
2022-09-21T04:07:48.328Z,8.93
2022-09-21T04:10:17.675Z,10.82
2022-09-21T04:12:44.557Z,10.98
2022-09-21T04:15:15.734Z,9.63
2022-09-21T04:17:42.498Z,8.80
2022-09-21T04:20:09.470Z,7.82
2022-09-21T04:22:43.279Z,12.27
2022-09-21T04:25:10.831Z,10.20
2022-09-21T04:27:37.438Z,8.85
2022-09-21T04:30:04.973Z,7.75
2022-09-21T04:32:31.603Z,9.23
2022-09-21T04:34:58.251Z,13.73
2022-09-21T04:37:24.871Z,9.60
2022-09-21T04:39:51.787Z,20.65
2022-09-21T04:42:18.736Z,26.67
2022-09-21T04:44:45.305Z,19.55
2022-09-21T04:47:11.965Z,25.17
2022-09-21T04:49:38.848Z,23.70
2022-09-21T04:52:05.991Z,12.85
2022-09-21T04:54:34.879Z,7.35
2022-09-21T04:57:03.232Z,12.88
2022-09-21T04:59:29.890Z,7.35
2022-09-21T05:01:56.471Z,7.57
2022-09-21T05:04:22.976Z,7.38
2022-09-21T05:06:49.861Z,7.15
2022-09-21T05:09:35.064Z,7.25
2022-09-21T05:12:03.003Z,17.15
2022-09-21T05:14:29.568Z,28.98
2022-09-21T05:16:56.198Z,17.90
2022-09-21T05:19:22.943Z,73.85
2022-09-21T05:21:49.540Z,41.58
2022-09-21T05:24:16.285Z,96.03
2022-09-21T05:26:42.979Z,120.80
2022-09-21T05:29:09.849Z,26.15
2022-09-21T05:31:48.128Z,104.63
2022-09-21T05:34:36.571Z,66.38
2022-09-21T05:37:13.100Z,22.08
2022-09-21T05:39:40.003Z,10.57
2022-09-21T05:42:07.024Z,10.32
2022-09-21T05:44:33.702Z,10.20
2022-09-21T05:47:16.816Z,10.38
2022-09-21T05:50:06.886Z,15.23
2022-09-21T05:52:49.422Z,12.25
2022-09-21T05:55:29.946Z,10.40
2022-09-21T05:58:27.138Z,10.55
2022-09-21T06:01:15.657Z,9.85
2022-09-21T06:03:42.465Z,9.52
2022-09-21T06:06:09.927Z,10.38
2022-09-21T06:08:36.445Z,12.98
2022-09-21T06:11:03.063Z,30.67
2022-09-21T06:13:29.622Z,22.73
2022-09-21T06:15:56.285Z,14.25
2022-09-21T06:18:22.825Z,10.02
2022-09-21T06:20:49.427Z,11.60
2022-09-21T06:23:16.103Z,40.83
2022-09-21T06:25:42.707Z,10.07
2022-09-21T06:28:11.668Z,12.18
2022-09-21T06:30:39.304Z,38.78
2022-09-21T06:33:06.801Z,40.85
2022-09-21T06:35:34.740Z,76.38
2022-09-21T06:38:02.484Z,56.22
2022-09-21T06:40:30.131Z,64.03
2022-09-21T06:43:00.782Z,70.43
2022-09-21T06:45:29.131Z,38.53
2022-09-21T06:47:55.914Z,14.68
2022-09-21T06:50:23.014Z,66.13
2022-09-21T06:52:49.680Z,64.28
2022-09-21T06:55:16.314Z,30.08
2022-09-21T06:57:43.752Z,27.35
2022-09-21T07:00:13.681Z,22.20
2022-09-21T07:02:46.739Z,16.98
2022-09-21T07:05:13.472Z,9.90
2022-09-21T07:07:40.541Z,9.93
2022-09-21T07:10:13.090Z,14.20
2022-09-21T07:12:41.490Z,12.98
2022-09-21T07:15:10.216Z,15.85
2022-09-21T07:17:38.260Z,9.60
2022-09-21T07:20:05.904Z,9.20
2022-09-21T07:22:32.812Z,12.23
2022-09-21T07:24:59.830Z,9.70
2022-09-21T07:27:28.279Z,11.02
2022-09-21T07:29:54.790Z,10.82
2022-09-21T07:32:21.656Z,10.27
2022-09-21T07:34:48.301Z,12.38
2022-09-21T07:37:15.179Z,13.18
2022-09-21T07:39:41.837Z,12.02
2022-09-21T07:42:08.447Z,13.27
2022-09-21T07:44:35.041Z,13.20
2022-09-21T07:47:03.291Z,11.60
2022-09-21T07:49:29.848Z,11.18
2022-09-21T07:52:01.433Z,12.63
2022-09-21T07:54:30.304Z,17.63
2022-09-21T07:57:15.196Z,10.75
2022-09-21T07:59:41.834Z,10.75
2022-09-21T08:02:08.563Z,11.35
2022-09-21T08:04:35.182Z,13.27
2022-09-21T08:07:01.705Z,12.55
2022-09-21T08:09:28.280Z,10.00
2022-09-21T08:11:55.689Z,11.45
2022-09-21T08:14:26.786Z,8.80
2022-09-21T08:16:53.609Z,11.18
2022-09-21T08:19:20.880Z,10.15
2022-09-21T08:21:56.283Z,7.60
2022-09-21T08:24:26.599Z,10.52
2022-09-21T08:26:54.088Z,11.30
2022-09-21T08:29:20.932Z,9.73
2022-09-21T08:31:47.677Z,10.82
2022-09-21T08:34:14.383Z,10.70
2022-09-21T08:36:41.077Z,10.70
2022-09-21T08:39:08.764Z,8.20
2022-09-21T08:42:03.423Z,8.95
2022-09-21T08:44:37.372Z,12.23
2022-09-21T08:47:09.164Z,8.50
2022-09-21T08:49:38.189Z,7.63
2022-09-21T08:52:16.528Z,9.98
2022-09-21T08:54:49.145Z,6.90
2022-09-21T08:57:16.307Z,10.00
2022-09-21T08:59:47.616Z,8.27
2022-09-21T09:02:23.065Z,8.30
2022-09-21T09:04:53.919Z,8.98
2022-09-21T09:07:40.787Z,12.00
2022-09-21T09:10:20.316Z,9.70
2022-09-21T09:12:53.517Z,5.93
2022-09-21T09:15:41.569Z,6.47
2022-09-21T09:18:25.515Z,6.03
2022-09-21T09:21:02.959Z,6.57
2022-09-21T09:23:46.952Z,7.07
2022-09-21T09:26:28.218Z,6.30
2022-09-21T09:29:09.265Z,9.18
2022-09-21T09:31:37.048Z,6.82
2022-09-21T09:34:13.023Z,8.45
2022-09-21T09:36:58.245Z,9.52
2022-09-21T09:39:26.154Z,8.20
2022-09-21T09:42:17.475Z,7.00
2022-09-21T09:45:25.498Z,6.05
2022-09-21T09:48:06.468Z,7.07
2022-09-21T09:50:37.969Z,6.13
2022-09-21T09:53:12.971Z,6.20
2022-09-21T09:55:42.323Z,6.88
2022-09-21T09:58:20.902Z,7.65
2022-09-21T10:00:52.129Z,6.97
2022-09-21T10:03:23.913Z,6.35
2022-09-21T10:05:51.111Z,9.15
2022-09-21T10:08:32.648Z,7.80
2022-09-21T10:10:59.293Z,4.75
2022-09-21T10:13:30.578Z,8.40
2022-09-21T10:16:06.877Z,5.53
2022-09-21T10:18:49.827Z,5.85
2022-09-21T10:21:21.157Z,4.32
2022-09-21T10:23:53.575Z,6.97
2022-09-21T10:26:20.497Z,4.88
2022-09-21T10:29:01.436Z,5.30
2022-09-21T10:31:29.926Z,3.75
2022-09-21T10:34:15.105Z,5.93
2022-09-21T10:36:51.627Z,3.15
2022-09-21T10:39:20.148Z,3.17
2022-09-21T10:42:06.916Z,3.88
2022-09-21T10:44:41.581Z,3.63
2022-09-21T10:47:34.446Z,2.20
2022-09-21T10:50:03.942Z,3.63
2022-09-21T10:52:36.387Z,3.83
2022-09-21T10:55:03.219Z,3.35
2022-09-21T10:57:30.336Z,2.03
2022-09-21T10:59:57.359Z,3.70
2022-09-21T11:02:26.833Z,3.15
2022-09-21T11:04:59.273Z,2.30
2022-09-21T11:07:37.438Z,3.13
2022-09-21T11:10:22.847Z,4.72
2022-09-21T11:12:55.355Z,3.47
2022-09-21T11:15:44.254Z,2.05
2022-09-21T11:18:19.103Z,1.65
2022-09-21T11:21:19.921Z,1.70
2022-09-21T11:24:04.538Z,2.17
2022-09-21T11:26:40.718Z,6.38
2022-09-21T11:29:15.701Z,2.33
2022-09-21T11:31:51.664Z,2.45
2022-09-21T11:35:06.089Z,2.65
2022-09-21T11:37:53.847Z,1.50
2022-09-21T11:40:40.493Z,1.15
2022-09-21T11:43:44.713Z,1.85
2022-09-21T11:46:33.155Z,1.42
2022-09-21T11:49:39.017Z,1.70
2022-09-21T11:52:21.654Z,1.15
2022-09-21T11:54:51.917Z,1.67
2022-09-21T11:57:28.887Z,2.38
2022-09-21T12:00:17.816Z,3.53
2022-09-21T12:03:09.599Z,1.70
2022-09-21T12:06:12.177Z,4.30
2022-09-21T12:08:58.638Z,1.30
2022-09-21T12:11:34.392Z,2.80
2022-09-21T12:14:12.989Z,2.60
2022-09-21T12:16:52.277Z,1.73
2022-09-21T12:19:40.728Z,5.25
2022-09-21T12:22:19.978Z,3.17
2022-09-21T12:24:55.949Z,1.52
2022-09-21T12:27:29.464Z,1.45
2022-09-21T12:30:03.875Z,3.30
2022-09-21T12:32:47.484Z,6.20
2022-09-21T12:35:17.358Z,2.72
2022-09-21T12:37:51.030Z,1.13
2022-09-21T12:40:27.958Z,1.50
2022-09-21T12:43:02.003Z,1.10
2022-09-21T12:45:47.653Z,2.30
2022-09-21T12:48:21.990Z,2.38
2022-09-21T12:50:55.055Z,2.85
2022-09-21T12:53:29.041Z,1.13
2022-09-21T12:56:37.100Z,1.88
2022-09-21T12:59:17.967Z,2.42
2022-09-21T13:01:57.412Z,3.00
2022-09-21T13:04:49.901Z,2.15
2022-09-21T13:07:32.669Z,2.05
2022-09-21T13:10:01.395Z,1.77
2022-09-21T13:12:34.542Z,2.58
2022-09-21T13:15:33.125Z,1.65
2022-09-21T13:18:05.749Z,1.90
2022-09-21T13:20:38.190Z,2.08
2022-09-21T13:23:04.978Z,0.98
2022-09-21T13:25:37.408Z,1.67
2022-09-21T13:28:13.519Z,1.23
2022-09-21T13:30:47.997Z,1.90
2022-09-21T13:33:20.706Z,1.48
2022-09-21T13:35:50.090Z,1.95
2022-09-21T13:38:41.140Z,1.40
2022-09-21T13:41:16.880Z,1.63
2022-09-21T13:43:54.758Z,1.27
2022-09-21T13:46:37.068Z,2.20
2022-09-21T13:49:13.906Z,1.27
2022-09-21T13:52:00.294Z,1.42
2022-09-21T13:54:34.138Z,1.48
2022-09-21T13:57:09.181Z,2.08
2022-09-21T13:59:36.295Z,2.33
2022-09-21T14:02:03.880Z,1.90
2022-09-21T14:04:33.437Z,2.20
2022-09-21T14:07:05.032Z,3.15
2022-09-21T14:09:38.738Z,4.35
2022-09-21T14:14:38.159Z,1.58
2022-09-21T14:17:06.235Z,3.40
2022-09-21T14:19:33.670Z,1.58
2022-09-21T14:22:09.528Z,1.70
2022-09-21T14:24:43.903Z,3.80
2022-09-21T14:27:32.344Z,1.25
2022-09-21T14:30:16.440Z,1.48
2022-09-21T14:32:47.355Z,1.77
2022-09-21T14:35:18.552Z,2.33
2022-09-21T14:37:49.001Z,2.42
2022-09-21T14:40:39.144Z,2.20
2022-09-21T14:43:12.812Z,2.38
2022-09-21T14:46:01.731Z,1.15
2022-09-21T14:48:56.123Z,2.40
2022-09-21T14:51:38.247Z,2.05
2022-09-21T14:54:32.029Z,0.98
2022-09-21T14:57:19.086Z,1.70
2022-09-21T15:00:14.258Z,1.58
2022-09-21T15:02:43.448Z,1.77
2022-09-21T15:05:26.226Z,2.97
2022-09-21T15:08:43.975Z,2.13
2022-09-21T15:11:27.619Z,2.28
2022-09-21T15:14:16.336Z,1.90
2022-09-21T15:16:49.939Z,1.77
2022-09-21T15:19:27.213Z,1.60
2022-09-21T15:22:15.891Z,1.38
2022-09-21T15:24:54.558Z,2.20
2022-09-21T15:27:23.998Z,2.78
2022-09-21T15:29:54.662Z,1.35
2022-09-21T15:32:41.103Z,2.33
2022-09-21T15:35:37.089Z,4.25
2022-09-21T15:38:04.436Z,1.17
2022-09-21T15:40:46.950Z,2.05
2022-09-21T15:43:16.841Z,2.35
2022-09-21T15:45:51.680Z,2.50
2022-09-21T15:48:19.813Z,3.72
2022-09-21T15:50:59.452Z,1.88
2022-09-21T15:53:29.689Z,2.03
2022-09-21T15:55:57.133Z,1.02
2022-09-21T15:58:37.053Z,2.75
2022-09-21T16:01:13.047Z,2.25
2022-09-21T16:03:40.606Z,4.35
2022-09-21T16:06:34.102Z,2.25
2022-09-21T16:09:26.548Z,2.45
2022-09-21T16:11:53.841Z,3.08
2022-09-21T16:14:44.675Z,2.40
2022-09-21T16:17:14.984Z,1.67
2022-09-21T16:20:03.218Z,1.52
2022-09-21T16:22:41.579Z,4.00
2022-09-21T16:25:24.781Z,2.45
2022-09-21T16:27:56.999Z,1.83
2022-09-21T16:30:52.938Z,1.98
2022-09-21T16:33:41.407Z,2.97
2022-09-21T16:36:17.106Z,1.73
2022-09-21T16:38:46.023Z,2.10
2022-09-21T16:41:12.969Z,2.40
2022-09-21T16:43:43.130Z,1.92
2022-09-21T16:46:10.503Z,2.15
2022-09-21T16:48:38.960Z,2.33
2022-09-21T16:51:25.031Z,3.97
2022-09-21T16:53:52.205Z,3.30
2022-09-21T16:56:19.230Z,2.35
2022-09-21T16:58:46.154Z,1.77
2022-09-21T17:01:20.756Z,1.33
2022-09-21T17:03:47.786Z,2.45
2022-09-21T17:06:17.340Z,1.50
2022-09-21T17:08:48.127Z,2.55
2022-09-21T17:11:22.171Z,2.30
2022-09-21T17:13:51.995Z,1.55
2022-09-21T17:16:20.047Z,2.92
2022-09-21T17:18:47.973Z,2.78
2022-09-21T17:21:15.287Z,2.05
2022-09-21T17:23:42.282Z,2.05
2022-09-21T17:26:17.906Z,2.63
2022-09-21T17:28:44.892Z,3.22
2022-09-21T17:31:13.086Z,2.47
2022-09-21T17:33:40.185Z,4.00
2022-09-21T17:36:07.827Z,3.40
2022-09-21T17:38:36.951Z,3.53
2022-09-21T17:41:07.960Z,2.38
2022-09-21T17:43:50.105Z,2.45
2022-09-21T17:46:26.791Z,3.80
2022-09-21T17:48:53.693Z,2.35
2022-09-21T17:51:40.688Z,2.58
2022-09-21T17:56:46.328Z,4.65
2022-09-21T17:59:19.125Z,8.07
2022-09-21T18:01:46.296Z,2.30
2022-09-21T18:04:13.002Z,2.58
2022-09-21T18:06:39.828Z,6.47
2022-09-21T18:09:07.008Z,2.55
2022-09-21T18:11:52.447Z,3.88
2022-09-21T18:14:45.143Z,2.63
2022-09-21T18:17:43.631Z,2.20
2022-09-21T18:20:17.450Z,1.50
2022-09-21T18:23:02.700Z,1.90
2022-09-21T18:25:47.553Z,2.42
2022-09-21T18:28:44.088Z,2.35
2022-09-21T18:31:24.858Z,2.45
2022-09-21T18:35:01.925Z,3.92
2022-09-21T18:37:49.983Z,5.90
2022-09-21T18:40:28.557Z,5.28
2022-09-21T18:43:01.591Z,3.97
2022-09-21T18:45:39.974Z,8.45
2022-09-21T18:48:19.691Z,3.28
2022-09-21T18:51:07.651Z,2.95
2022-09-21T18:53:47.819Z,4.25
2022-09-21T18:56:15.183Z,3.90
2022-09-21T18:58:45.552Z,4.72
2022-09-21T19:01:13.566Z,5.35
2022-09-21T19:03:40.856Z,5.20
2022-09-21T19:06:27.357Z,4.55
2022-09-21T19:09:10.016Z,5.50
2022-09-21T19:11:38.114Z,4.93
2022-09-21T19:14:07.595Z,3.95
2022-09-21T19:16:57.779Z,7.72
2022-09-21T19:19:35.184Z,5.40
2022-09-21T19:22:12.227Z,7.72
2022-09-21T19:24:51.463Z,5.00
2022-09-21T19:27:26.059Z,5.13
2022-09-21T19:30:04.475Z,8.32
2022-09-21T19:32:36.429Z,6.38
2022-09-21T19:35:15.733Z,6.07
2022-09-21T19:37:42.374Z,6.43
2022-09-21T19:40:10.661Z,10.43
2022-09-21T19:43:21.172Z,8.18
2022-09-21T19:46:05.021Z,8.35
2022-09-21T19:48:41.683Z,7.93
2022-09-21T19:51:14.658Z,7.10
2022-09-21T19:53:59.635Z,7.68
2022-09-21T19:56:45.077Z,6.13
2022-09-21T19:59:30.365Z,5.93
2022-09-21T20:01:58.964Z,4.75
2022-09-21T20:04:36.590Z,6.25
2022-09-21T20:07:12.999Z,7.95
2022-09-21T20:09:44.250Z,5.90
2022-09-21T20:12:22.552Z,9.38
2022-09-21T20:14:55.747Z,9.15
2022-09-21T20:17:31.676Z,4.95
2022-09-21T20:20:08.364Z,5.60
2022-09-21T20:22:37.028Z,6.43
2022-09-21T20:25:12.807Z,6.57
2022-09-21T20:27:44.265Z,5.50
2022-09-21T20:30:13.895Z,5.75
2022-09-21T20:32:42.301Z,5.93
2022-09-21T20:35:17.687Z,5.03
2022-09-21T20:37:44.798Z,5.70
2022-09-21T20:40:13.228Z,5.72
2022-09-21T20:42:40.968Z,5.22
2022-09-21T20:45:08.877Z,6.47
2022-09-21T20:47:35.571Z,6.40
2022-09-21T20:50:03.492Z,6.07
2022-09-21T20:52:30.212Z,5.80
2022-09-21T20:54:56.792Z,6.30
2022-09-21T20:57:23.341Z,9.18
2022-09-21T20:59:49.884Z,7.10
2022-09-21T21:02:16.719Z,7.10
2022-09-21T21:04:43.386Z,6.53
2022-09-21T21:07:10.111Z,5.75
2022-09-21T21:09:36.630Z,7.38
2022-09-21T21:12:03.307Z,6.15
2022-09-21T21:14:29.941Z,5.85
2022-09-21T21:16:56.641Z,12.27
2022-09-21T21:19:23.358Z,4.70
2022-09-21T21:21:49.949Z,5.35
2022-09-21T21:24:35.037Z,6.22
2022-09-21T21:27:03.321Z,5.82
2022-09-21T21:29:31.022Z,6.78
2022-09-21T21:34:29.498Z,6.78
2022-09-21T21:36:56.094Z,7.43
2022-09-21T21:39:22.661Z,5.63
2022-09-21T21:41:49.269Z,5.75
2022-09-21T21:44:15.901Z,7.70
2022-09-21T21:46:43.297Z,5.28
2022-09-21T21:49:10.113Z,9.38
2022-09-21T21:51:36.653Z,6.20
2022-09-21T21:54:03.298Z,7.10
2022-09-21T21:56:29.833Z,6.45
2022-09-21T21:58:56.489Z,7.80
2022-09-21T22:01:26.333Z,7.05
2022-09-21T22:03:54.891Z,7.05
2022-09-21T22:06:22.168Z,7.55
2022-09-21T22:08:49.451Z,7.40
2022-09-21T22:11:17.631Z,7.10
2022-09-21T22:13:45.634Z,7.50
2022-09-21T22:16:18.841Z,5.90
2022-09-21T22:18:46.260Z,7.53
2022-09-21T22:21:17.764Z,7.93
2022-09-21T22:23:44.382Z,7.68
2022-09-21T22:26:16.503Z,6.63
2022-09-21T22:28:45.784Z,8.88
2022-09-21T22:31:17.588Z,6.53
2022-09-21T22:33:44.598Z,5.75
2022-09-21T22:36:13.694Z,6.43
2022-09-21T22:38:43.097Z,6.60
2022-09-21T22:41:19.267Z,5.95
2022-09-21T22:43:47.305Z,7.63
2022-09-21T22:48:40.766Z,7.53
2022-09-21T22:51:07.563Z,7.90
2022-09-21T22:53:34.148Z,6.43
2022-09-21T22:56:09.366Z,9.32
2022-09-21T22:58:38.740Z,6.43
2022-09-21T23:01:19.138Z,10.30
2022-09-21T23:03:48.233Z,6.10
2022-09-21T23:06:18.459Z,8.20
2022-09-21T23:08:49.552Z,7.50
2022-09-21T23:11:21.811Z,8.63
2022-09-21T23:13:49.419Z,5.85
2022-09-21T23:16:16.944Z,6.00
2022-09-21T23:18:44.152Z,6.28
2022-09-21T23:21:13.129Z,5.25
2022-09-21T23:23:40.707Z,8.90
2022-09-21T23:26:11.451Z,6.90
2022-09-21T23:28:39.646Z,6.35
2022-09-21T23:31:08.642Z,6.35
2022-09-21T23:33:45.599Z,5.97
2022-09-21T23:36:14.479Z,6.28
2022-09-21T23:38:41.090Z,7.10
2022-09-21T23:41:12.976Z,6.22
2022-09-21T23:43:40.901Z,7.00
2022-09-21T23:46:08.763Z,7.60
2022-09-21T23:48:35.950Z,7.90
2022-09-21T23:51:02.929Z,6.53
2022-09-21T23:53:29.525Z,8.65
2022-09-21T23:55:57.492Z,7.22
2022-09-21T23:58:24.947Z,6.38
